sensor_id;sensor_type;location;lat;lon;timestamp;pressure;altitude;pressure_sealevel;temperature;humidity
67980;BME280;54760;47.490;19.030;2022-10-18T00:00:10;101551.94;;;13.65;68.54
67980;BME280;54760;47.490;19.030;2022-10-18T00:02:35;101542.56;;;14.04;66.86
67980;BME280;54760;47.490;19.030;2022-10-18T00:05:00;101541.75;;;14.10;66.38
67980;BME280;54760;47.490;19.030;2022-10-18T00:07:25;101544.28;;;13.91;66.38
67980;BME280;54760;47.490;19.030;2022-10-18T00:09:51;101542.13;;;14.09;65.96
67980;BME280;54760;47.490;19.030;2022-10-18T00:12:16;101540.69;;;13.42;68.34
67980;BME280;54760;47.490;19.030;2022-10-18T00:14:41;101539.50;;;12.56;72.25
67980;BME280;54760;47.490;19.030;2022-10-18T00:17:06;101532.41;;;12.62;72.41
67980;BME280;54760;47.490;19.030;2022-10-18T00:19:32;101532.13;;;12.25;74.38
67980;BME280;54760;47.490;19.030;2022-10-18T00:21:57;101523.94;;;12.07;75.10
67980;BME280;54760;47.490;19.030;2022-10-18T00:24:22;101531.34;;;11.57;77.12
67980;BME280;54760;47.490;19.030;2022-10-18T00:26:47;101530.59;;;11.99;76.08
67980;BME280;54760;47.490;19.030;2022-10-18T00:29:14;101519.97;;;12.26;73.54
67980;BME280;54760;47.490;19.030;2022-10-18T00:31:39;101525.34;;;12.61;72.95
67980;BME280;54760;47.490;19.030;2022-10-18T00:34:06;101523.62;;;12.95;70.38
67980;BME280;54760;47.490;19.030;2022-10-18T00:36:33;101523.88;;;12.35;73.28
67980;BME280;54760;47.490;19.030;2022-10-18T00:38:59;101518.13;;;12.95;70.91
67980;BME280;54760;47.490;19.030;2022-10-18T00:41:26;101518.41;;;12.18;73.79
67980;BME280;54760;47.490;19.030;2022-10-18T00:46:16;101524.78;;;13.05;70.08
67980;BME280;54760;47.490;19.030;2022-10-18T00:48:42;101514.81;;;13.36;68.10
67980;BME280;54760;47.490;19.030;2022-10-18T00:51:07;101523.72;;;12.81;70.24
67980;BME280;54760;47.490;19.030;2022-10-18T00:53:32;101516.34;;;13.40;67.84
67980;BME280;54760;47.490;19.030;2022-10-18T00:55:57;101518.56;;;12.94;69.87
67980;BME280;54760;47.490;19.030;2022-10-18T00:58:23;101512.34;;;13.52;67.51
67980;BME280;54760;47.490;19.030;2022-10-18T01:00:48;101500.78;;;13.71;66.66
67980;BME280;54760;47.490;19.030;2022-10-18T01:03:13;101509.84;;;13.68;66.54
67980;BME280;54760;47.490;19.030;2022-10-18T01:05:41;101510.72;;;13.58;66.75
67980;BME280;54760;47.490;19.030;2022-10-18T01:10:46;101506.41;;;12.88;69.15
67980;BME280;54760;47.490;19.030;2022-10-18T01:21:15;101497.13;;;12.57;71.98
67980;BME280;54760;47.490;19.030;2022-10-18T01:34:08;101480.81;;;11.97;74.29
67980;BME280;54760;47.490;19.030;2022-10-18T01:36:38;101479.78;;;12.74;70.08
67980;BME280;54760;47.490;19.030;2022-10-18T01:39:06;101481.53;;;12.19;72.52
67980;BME280;54760;47.490;19.030;2022-10-18T01:41:32;101479.59;;;12.08;73.51
67980;BME280;54760;47.490;19.030;2022-10-18T01:43:59;101481.97;;;11.43;75.95
67980;BME280;54760;47.490;19.030;2022-10-18T01:46:26;101474.50;;;11.40;76.24
67980;BME280;54760;47.490;19.030;2022-10-18T01:48:52;101471.37;;;11.27;77.41
67980;BME280;54760;47.490;19.030;2022-10-18T01:51:19;101464.31;;;11.29;77.44
67980;BME280;54760;47.490;19.030;2022-10-18T01:53:46;101463.16;;;11.30;77.20
67980;BME280;54760;47.490;19.030;2022-10-18T01:56:23;101458.03;;;11.29;77.93
67980;BME280;54760;47.490;19.030;2022-10-18T02:01:28;101458.03;;;11.15;78.29
67980;BME280;54760;47.490;19.030;2022-10-18T02:03:55;101467.06;;;11.29;77.30
67980;BME280;54760;47.490;19.030;2022-10-18T02:06:30;101460.00;;;11.21;78.24
67980;BME280;54760;47.490;19.030;2022-10-18T02:09:10;101458.00;;;10.94;79.06
67980;BME280;54760;47.490;19.030;2022-10-18T02:11:37;101451.78;;;11.39;77.59
67980;BME280;54760;47.490;19.030;2022-10-18T02:14:07;101447.06;;;11.08;78.85
67980;BME280;54760;47.490;19.030;2022-10-18T02:16:37;101447.09;;;11.33;77.16
67980;BME280;54760;47.490;19.030;2022-10-18T02:19:07;101454.16;;;11.44;77.02
67980;BME280;54760;47.490;19.030;2022-10-18T02:21:34;101453.38;;;11.65;74.84
67980;BME280;54760;47.490;19.030;2022-10-18T02:24:00;101449.44;;;11.84;74.46
67980;BME280;54760;47.490;19.030;2022-10-18T02:26:26;101450.19;;;12.16;72.37
67980;BME280;54760;47.490;19.030;2022-10-18T02:28:52;101456.53;;;11.53;75.57
67980;BME280;54760;47.490;19.030;2022-10-18T02:31:24;101460.34;;;10.95;78.85
67980;BME280;54760;47.490;19.030;2022-10-18T02:33:59;101456.53;;;11.74;75.53
67980;BME280;54760;47.490;19.030;2022-10-18T02:36:36;101454.91;;;11.98;73.12
67980;BME280;54760;47.490;19.030;2022-10-18T02:39:12;101450.94;;;12.24;71.77
67980;BME280;54760;47.490;19.030;2022-10-18T02:41:38;101459.63;;;11.55;75.51
67980;BME280;54760;47.490;19.030;2022-10-18T02:44:03;101453.78;;;11.53;75.83
67980;BME280;54760;47.490;19.030;2022-10-18T02:46:29;101458.47;;;11.95;73.12
67980;BME280;54760;47.490;19.030;2022-10-18T02:48:54;101451.72;;;12.24;71.25
67980;BME280;54760;47.490;19.030;2022-10-18T02:51:19;101453.38;;;11.65;74.36
67980;BME280;54760;47.490;19.030;2022-10-18T02:53:44;101458.06;;;11.79;74.63
67980;BME280;54760;47.490;19.030;2022-10-18T02:56:09;101457.28;;;11.43;75.82
67980;BME280;54760;47.490;19.030;2022-10-18T02:58:35;101458.78;;;11.05;77.74
67980;BME280;54760;47.490;19.030;2022-10-18T03:01:00;101450.63;;;11.33;77.26
67980;BME280;54760;47.490;19.030;2022-10-18T03:03:25;101450.63;;;11.58;75.38
67980;BME280;54760;47.490;19.030;2022-10-18T03:05:51;101448.28;;;11.88;73.59
67980;BME280;54760;47.490;19.030;2022-10-18T03:08:16;101447.37;;;12.27;71.38
67980;BME280;54760;47.490;19.030;2022-10-18T03:10:45;101451.28;;;12.40;71.13
67980;BME280;54760;47.490;19.030;2022-10-18T03:13:10;101458.00;;;12.18;72.48
67980;BME280;54760;47.490;19.030;2022-10-18T03:15:35;101455.62;;;12.27;71.92
67980;BME280;54760;47.490;19.030;2022-10-18T03:18:01;101468.22;;;12.13;71.97
67980;BME280;54760;47.490;19.030;2022-10-18T03:20:26;101474.53;;;11.79;73.86
67980;BME280;54760;47.490;19.030;2022-10-18T03:22:51;101473.28;;;11.05;76.88
67980;BME280;54760;47.490;19.030;2022-10-18T03:25:17;101472.88;;;10.89;78.16
67980;BME280;54760;47.490;19.030;2022-10-18T03:27:42;101476.00;;;10.84;78.35
67980;BME280;54760;47.490;19.030;2022-10-18T03:30:07;101474.47;;;11.11;77.39
67980;BME280;54760;47.490;19.030;2022-10-18T03:32:33;101477.59;;;11.06;77.30
67980;BME280;54760;47.490;19.030;2022-10-18T03:34:58;101477.66;;;11.56;74.97
67980;BME280;54760;47.490;19.030;2022-10-18T03:37:24;101472.16;;;11.49;75.61
67980;BME280;54760;47.490;19.030;2022-10-18T03:39:49;101472.53;;;11.29;75.86
67980;BME280;54760;47.490;19.030;2022-10-18T03:42:14;101472.88;;;11.00;77.21
67980;BME280;54760;47.490;19.030;2022-10-18T03:44:39;101471.34;;;11.16;76.72
67980;BME280;54760;47.490;19.030;2022-10-18T03:47:04;101474.41;;;10.79;78.62
67980;BME280;54760;47.490;19.030;2022-10-18T03:49:30;101476.41;;;11.00;77.91
67980;BME280;54760;47.490;19.030;2022-10-18T03:51:55;101472.44;;;10.80;78.79
67980;BME280;54760;47.490;19.030;2022-10-18T03:54:20;101475.66;;;11.24;75.73
67980;BME280;54760;47.490;19.030;2022-10-18T03:56:45;101479.25;;;11.78;74.10
67980;BME280;54760;47.490;19.030;2022-10-18T03:59:10;101480.00;;;11.47;74.21
67980;BME280;54760;47.490;19.030;2022-10-18T04:01:36;101472.94;;;11.39;74.77
67980;BME280;54760;47.490;19.030;2022-10-18T04:04:01;101474.88;;;11.13;76.00
67980;BME280;54760;47.490;19.030;2022-10-18T04:06:26;101466.69;;;11.52;74.82
67980;BME280;54760;47.490;19.030;2022-10-18T04:08:53;101472.19;;;11.56;74.64
67980;BME280;54760;47.490;19.030;2022-10-18T04:11:18;101466.69;;;11.27;75.24
67980;BME280;54760;47.490;19.030;2022-10-18T04:13:43;101469.44;;;11.42;74.56
67980;BME280;54760;47.490;19.030;2022-10-18T04:16:09;101461.88;;;10.82;77.33
67980;BME280;54760;47.490;19.030;2022-10-18T04:18:34;101466.59;;;10.92;77.71
67980;BME280;54760;47.490;19.030;2022-10-18T04:20:59;101454.94;;;11.45;75.30
67980;BME280;54760;47.490;19.030;2022-10-18T04:23:24;101465.84;;;11.02;75.99
67980;BME280;54760;47.490;19.030;2022-10-18T04:25:50;101458.09;;;11.57;73.90
67980;BME280;54760;47.490;19.030;2022-10-18T04:28:15;101456.91;;;11.76;73.35
67980;BME280;54760;47.490;19.030;2022-10-18T04:30:40;101457.69;;;11.62;74.23
67980;BME280;54760;47.490;19.030;2022-10-18T04:33:05;101445.91;;;11.58;74.77
67980;BME280;54760;47.490;19.030;2022-10-18T04:35:30;101447.88;;;11.19;74.35
67980;BME280;54760;47.490;19.030;2022-10-18T04:37:56;101458.84;;;11.22;75.25
67980;BME280;54760;47.490;19.030;2022-10-18T04:40:21;101454.16;;;11.48;73.21
67980;BME280;54760;47.490;19.030;2022-10-18T04:42:46;101454.84;;;10.84;76.90
67980;BME280;54760;47.490;19.030;2022-10-18T04:45:11;101446.28;;;11.07;75.63
67980;BME280;54760;47.490;19.030;2022-10-18T04:47:37;101451.41;;;11.23;74.08
67980;BME280;54760;47.490;19.030;2022-10-18T04:50:02;101447.09;;;11.25;74.91
67980;BME280;54760;47.490;19.030;2022-10-18T04:52:27;101445.47;;;10.93;76.66
67980;BME280;54760;47.490;19.030;2022-10-18T04:54:53;101436.13;;;11.61;73.69
67980;BME280;54760;47.490;19.030;2022-10-18T04:57:18;101436.91;;;11.37;74.63
67980;BME280;54760;47.490;19.030;2022-10-18T04:59:43;101434.56;;;11.49;74.30
67980;BME280;54760;47.490;19.030;2022-10-18T05:02:08;101437.69;;;11.69;73.39
67980;BME280;54760;47.490;19.030;2022-10-18T05:04:34;101436.16;;;11.75;73.16
67980;BME280;54760;47.490;19.030;2022-10-18T05:06:59;101432.19;;;11.69;73.36
67980;BME280;54760;47.490;19.030;2022-10-18T05:09:24;101433.00;;;11.91;72.51
67980;BME280;54760;47.490;19.030;2022-10-18T05:11:49;101430.66;;;11.50;74.26
67980;BME280;54760;47.490;19.030;2022-10-18T05:14:15;101430.66;;;11.82;72.65
67980;BME280;54760;47.490;19.030;2022-10-18T05:16:40;101437.69;;;11.65;73.42
67980;BME280;54760;47.490;19.030;2022-10-18T05:19:05;101434.56;;;11.46;74.06
67980;BME280;54760;47.490;19.030;2022-10-18T05:21:31;101430.25;;;11.52;74.14
67980;BME280;54760;47.490;19.030;2022-10-18T05:23:56;101438.44;;;10.88;76.38
67980;BME280;54760;47.490;19.030;2022-10-18T05:26:21;101444.59;;;10.60;78.02
67980;BME280;54760;47.490;19.030;2022-10-18T05:28:48;101445.16;;;11.61;74.13
67980;BME280;54760;47.490;19.030;2022-10-18T05:31:13;101438.47;;;11.66;73.24
67980;BME280;54760;47.490;19.030;2022-10-18T05:33:38;101440.06;;;11.32;74.88
67980;BME280;54760;47.490;19.030;2022-10-18T05:36:04;101445.12;;;11.12;75.64
67980;BME280;54760;47.490;19.030;2022-10-18T05:38:29;101451.00;;;11.49;74.48
67980;BME280;54760;47.490;19.030;2022-10-18T05:40:58;101450.25;;;11.42;74.51
67980;BME280;54760;47.490;19.030;2022-10-18T05:43:26;101443.53;;;11.11;75.75
67980;BME280;54760;47.490;19.030;2022-10-18T05:45:51;101441.59;;;11.29;75.92
67980;BME280;54760;47.490;19.030;2022-10-18T05:48:17;101436.94;;;11.47;74.98
67980;BME280;54760;47.490;19.030;2022-10-18T05:50:42;101442.41;;;11.51;75.14
67980;BME280;54760;47.490;19.030;2022-10-18T05:53:08;101436.91;;;11.19;76.52
67980;BME280;54760;47.490;19.030;2022-10-18T05:55:33;101438.50;;;11.77;74.38
67980;BME280;54760;47.490;19.030;2022-10-18T05:57:58;101437.25;;;12.09;73.18
67980;BME280;54760;47.490;19.030;2022-10-18T06:00:23;101444.75;;;11.35;75.09
67980;BME280;54760;47.490;19.030;2022-10-18T06:02:49;101441.59;;;11.40;76.16
67980;BME280;54760;47.490;19.030;2022-10-18T06:05:14;101441.59;;;11.40;75.66
67980;BME280;54760;47.490;19.030;2022-10-18T06:07:39;101444.31;;;11.15;76.94
67980;BME280;54760;47.490;19.030;2022-10-18T06:10:05;101443.56;;;11.21;77.08
67980;BME280;54760;47.490;19.030;2022-10-18T06:12:30;101444.72;;;11.20;77.44
67980;BME280;54760;47.490;19.030;2022-10-18T06:14:55;101433.81;;;11.77;75.54
67980;BME280;54760;47.490;19.030;2022-10-18T06:17:20;101441.59;;;12.00;73.90
67980;BME280;54760;47.490;19.030;2022-10-18T06:19:46;101447.75;;;12.32;72.56
67980;BME280;54760;47.490;19.030;2022-10-18T06:22:11;101450.09;;;12.44;71.18
67980;BME280;54760;47.490;19.030;2022-10-18T06:24:36;101447.03;;;12.18;72.35
67980;BME280;54760;47.490;19.030;2022-10-18T06:27:02;101455.66;;;12.20;72.79
67980;BME280;54760;47.490;19.030;2022-10-18T06:29:32;101457.75;;;12.81;70.38
67980;BME280;54760;47.490;19.030;2022-10-18T06:31:58;101466.50;;;12.66;70.75
67980;BME280;54760;47.490;19.030;2022-10-18T06:34:23;101466.81;;;12.78;70.57
67980;BME280;54760;47.490;19.030;2022-10-18T06:36:48;101467.56;;;12.82;70.68
67980;BME280;54760;47.490;19.030;2022-10-18T06:39:13;101458.56;;;12.78;69.84
67980;BME280;54760;47.490;19.030;2022-10-18T06:41:38;101460.69;;;12.46;72.30
67980;BME280;54760;47.490;19.030;2022-10-18T06:44:04;101464.03;;;12.82;70.35
67980;BME280;54760;47.490;19.030;2022-10-18T06:46:37;101466.59;;;12.41;72.40
67980;BME280;54760;47.490;19.030;2022-10-18T06:49:02;101456.41;;;13.11;70.79
67980;BME280;54760;47.490;19.030;2022-10-18T06:51:28;101458.50;;;12.85;71.79
67980;BME280;54760;47.490;19.030;2022-10-18T06:53:53;101458.56;;;12.78;72.06
67980;BME280;54760;47.490;19.030;2022-10-18T06:56:18;101461.38;;;13.81;70.38
67980;BME280;54760;47.490;19.030;2022-10-18T06:58:43;101458.00;;;16.22;61.87
67980;BME280;54760;47.490;19.030;2022-10-18T07:01:12;101455.16;;;18.56;53.85
67980;BME280;54760;47.490;19.030;2022-10-18T07:03:37;101454.69;;;20.40;47.24
67980;BME280;54760;47.490;19.030;2022-10-18T07:06:04;101454.28;;;21.61;44.53
67980;BME280;54760;47.490;19.030;2022-10-18T07:08:29;101458.47;;;23.08;40.85
67980;BME280;54760;47.490;19.030;2022-10-18T07:10:55;101453.50;;;24.07;38.38
67980;BME280;54760;47.490;19.030;2022-10-18T07:13:20;101450.59;;;25.19;35.81
67980;BME280;54760;47.490;19.030;2022-10-18T07:15:46;101447.50;;;25.93;33.85
67980;BME280;54760;47.490;19.030;2022-10-18T07:18:11;101446.28;;;26.45;32.73
67980;BME280;54760;47.490;19.030;2022-10-18T07:20:36;101446.44;;;26.93;31.69
67980;BME280;54760;47.490;19.030;2022-10-18T07:23:01;101451.03;;;27.33;30.65
67980;BME280;54760;47.490;19.030;2022-10-18T07:25:27;101435.94;;;27.79;29.74
67980;BME280;54760;47.490;19.030;2022-10-18T07:27:53;101432.75;;;28.14;29.52
67980;BME280;54760;47.490;19.030;2022-10-18T07:30:18;101434.81;;;28.19;28.89
67980;BME280;54760;47.490;19.030;2022-10-18T07:32:43;101431.25;;;28.91;28.00
67980;BME280;54760;47.490;19.030;2022-10-18T07:35:09;101422.56;;;28.72;28.44
67980;BME280;54760;47.490;19.030;2022-10-18T07:37:34;101425.97;;;29.61;26.52
67980;BME280;54760;47.490;19.030;2022-10-18T07:39:59;101418.81;;;29.55;26.32
67980;BME280;54760;47.490;19.030;2022-10-18T07:42:24;101427.88;;;29.03;26.94
67980;BME280;54760;47.490;19.030;2022-10-18T07:44:49;101423.66;;;29.60;26.32
67980;BME280;54760;47.490;19.030;2022-10-18T07:47:15;101422.03;;;29.76;26.23
67980;BME280;54760;47.490;19.030;2022-10-18T07:49:40;101424.59;;;29.79;25.82
67980;BME280;54760;47.490;19.030;2022-10-18T07:52:05;101424.06;;;28.45;26.80
67980;BME280;54760;47.490;19.030;2022-10-18T07:54:30;101417.66;;;30.21;24.94
67980;BME280;54760;47.490;19.030;2022-10-18T07:56:56;101422.03;;;28.84;26.44
67980;BME280;54760;47.490;19.030;2022-10-18T07:59:21;101419.09;;;27.90;27.70
67980;BME280;54760;47.490;19.030;2022-10-18T08:01:46;101405.06;;;29.81;25.47
67980;BME280;54760;47.490;19.030;2022-10-18T08:04:11;101403.56;;;31.11;23.50
67980;BME280;54760;47.490;19.030;2022-10-18T08:06:37;101398.59;;;30.92;23.46
67980;BME280;54760;47.490;19.030;2022-10-18T08:09:02;101405.06;;;31.36;23.25
67980;BME280;54760;47.490;19.030;2022-10-18T08:11:28;101399.22;;;31.90;22.45
67980;BME280;54760;47.490;19.030;2022-10-18T08:13:53;101397.50;;;33.09;20.15
67980;BME280;54760;47.490;19.030;2022-10-18T08:16:22;101393.47;;;33.04;20.74
67980;BME280;54760;47.490;19.030;2022-10-18T08:18:48;101394.47;;;33.07;19.25
67980;BME280;54760;47.490;19.030;2022-10-18T08:21:14;101378.75;;;33.32;19.49
67980;BME280;54760;47.490;19.030;2022-10-18T08:23:40;101379.41;;;33.25;18.95
67980;BME280;54760;47.490;19.030;2022-10-18T08:26:06;101384.06;;;32.70;19.35
67980;BME280;54760;47.490;19.030;2022-10-18T08:28:32;101382.84;;;33.71;19.34
67980;BME280;54760;47.490;19.030;2022-10-18T08:31:03;101378.75;;;34.13;18.87
67980;BME280;54760;47.490;19.030;2022-10-18T08:33:29;101375.22;;;34.00;18.83
67980;BME280;54760;47.490;19.030;2022-10-18T08:35:55;101369.19;;;34.03;18.78
67980;BME280;54760;47.490;19.030;2022-10-18T08:38:20;101366.84;;;33.34;19.32
67980;BME280;54760;47.490;19.030;2022-10-18T08:40:45;101364.22;;;34.38;18.36
67980;BME280;54760;47.490;19.030;2022-10-18T08:45:55;101357.84;;;34.45;18.67
67980;BME280;54760;47.490;19.030;2022-10-18T08:48:24;101356.91;;;34.99;18.01
67980;BME280;54760;47.490;19.030;2022-10-18T08:50:54;101357.31;;;35.03;17.89
67980;BME280;54760;47.490;19.030;2022-10-18T08:53:25;101351.19;;;34.21;18.22
67980;BME280;54760;47.490;19.030;2022-10-18T08:56:02;101349.19;;;35.14;17.41
67980;BME280;54760;47.490;19.030;2022-10-18T08:58:29;101332.31;;;34.81;17.70
67980;BME280;54760;47.490;19.030;2022-10-18T09:01:05;101335.88;;;36.12;17.13
67980;BME280;54760;47.490;19.030;2022-10-18T09:08:44;101334.38;;;36.64;15.66
67980;BME280;54760;47.490;19.030;2022-10-18T09:24:10;101311.63;;;37.84;13.48
67980;BME280;54760;47.490;19.030;2022-10-18T09:26:43;101304.37;;;37.18;14.35
67980;BME280;54760;47.490;19.030;2022-10-18T09:29:15;101303.91;;;35.83;15.70
67980;BME280;54760;47.490;19.030;2022-10-18T09:31:51;101309.09;;;36.30;14.88
67980;BME280;54760;47.490;19.030;2022-10-18T09:36:54;101303.94;;;36.59;14.32
67980;BME280;54760;47.490;19.030;2022-10-18T09:39:30;101290.63;;;36.54;14.82
67980;BME280;54760;47.490;19.030;2022-10-18T09:42:39;101292.91;;;35.94;14.65
67980;BME280;54760;47.490;19.030;2022-10-18T09:44:51;101290.44;;;34.53;16.09
67980;BME280;54760;47.490;19.030;2022-10-18T09:47:25;101283.06;;;36.26;14.59
67980;BME280;54760;47.490;19.030;2022-10-18T09:49:56;101291.16;;;35.61;14.82
67980;BME280;54760;47.490;19.030;2022-10-18T09:55:12;101283.50;;;34.41;15.43
67980;BME280;54760;47.490;19.030;2022-10-18T09:57:40;101274.81;;;33.97;16.32
67980;BME280;54760;47.490;19.030;2022-10-18T10:00:20;101270.53;;;36.29;14.60
67980;BME280;54760;47.490;19.030;2022-10-18T10:02:47;101266.69;;;35.88;14.72
67980;BME280;54760;47.490;19.030;2022-10-18T10:05:13;101268.84;;;35.22;14.98
67980;BME280;54760;47.490;19.030;2022-10-18T10:07:42;101264.63;;;36.04;14.42
67980;BME280;54760;47.490;19.030;2022-10-18T10:10:21;101259.88;;;35.76;14.32
67980;BME280;54760;47.490;19.030;2022-10-18T10:12:47;101263.06;;;35.65;15.06
67980;BME280;54760;47.490;19.030;2022-10-18T10:15:22;101253.75;;;34.98;15.23
67980;BME280;54760;47.490;19.030;2022-10-18T10:20:27;101250.53;;;34.38;15.92
67980;BME280;54760;47.490;19.030;2022-10-18T10:22:55;101241.75;;;34.92;15.38
67980;BME280;54760;47.490;19.030;2022-10-18T10:25:33;101243.28;;;34.93;15.12
67980;BME280;54760;47.490;19.030;2022-10-18T10:28:02;101228.81;;;33.78;15.84
67980;BME280;54760;47.490;19.030;2022-10-18T10:30:33;101225.81;;;33.08;16.39
67980;BME280;54760;47.490;19.030;2022-10-18T10:32:58;101231.88;;;33.25;16.72
67980;BME280;54760;47.490;19.030;2022-10-18T10:35:28;101219.28;;;33.68;15.91
67980;BME280;54760;47.490;19.030;2022-10-18T10:37:54;101224.59;;;33.92;16.20
67980;BME280;54760;47.490;19.030;2022-10-18T10:40:29;101212.03;;;34.08;15.78
67980;BME280;54760;47.490;19.030;2022-10-18T10:45:54;101208.38;;;35.59;14.95
67980;BME280;54760;47.490;19.030;2022-10-18T10:48:20;101204.97;;;36.29;14.21
67980;BME280;54760;47.490;19.030;2022-10-18T10:50:54;101206.28;;;34.50;15.23
67980;BME280;54760;47.490;19.030;2022-10-18T10:56:38;101197.34;;;31.95;17.38
67980;BME280;54760;47.490;19.030;2022-10-18T10:59:14;101199.28;;;33.39;16.47
67980;BME280;54760;47.490;19.030;2022-10-18T11:01:42;101200.19;;;33.34;16.73
67980;BME280;54760;47.490;19.030;2022-10-18T11:09:57;101178.63;;;34.58;15.45
67980;BME280;54760;47.490;19.030;2022-10-18T11:14:51;101172.53;;;33.14;16.82
67980;BME280;54760;47.490;19.030;2022-10-18T11:19:58;101161.72;;;33.46;16.10
67980;BME280;54760;47.490;19.030;2022-10-18T11:22:27;101167.19;;;33.10;16.64
67980;BME280;54760;47.490;19.030;2022-10-18T11:24:54;101158.16;;;33.95;16.36
67980;BME280;54760;47.490;19.030;2022-10-18T11:27:27;101161.47;;;35.45;15.43
67980;BME280;54760;47.490;19.030;2022-10-18T11:48:04;101118.97;;;35.47;15.11
67980;BME280;54760;47.490;19.030;2022-10-18T11:50:33;101108.53;;;35.49;14.65
67980;BME280;54760;47.490;19.030;2022-10-18T12:01:25;101099.16;;;36.10;14.03
67980;BME280;54760;47.490;19.030;2022-10-18T12:04:01;101100.69;;;36.03;14.18
67980;BME280;54760;47.490;19.030;2022-10-18T12:06:33;101096.88;;;34.07;16.01
67980;BME280;54760;47.490;19.030;2022-10-18T12:09:42;101087.66;;;35.62;14.61
67980;BME280;54760;47.490;19.030;2022-10-18T12:11:52;101085.09;;;34.90;14.98
67980;BME280;54760;47.490;19.030;2022-10-18T12:14:27;101090.09;;;34.10;16.25
67980;BME280;54760;47.490;19.030;2022-10-18T12:16:54;101073.28;;;34.63;15.42
67980;BME280;54760;47.490;19.030;2022-10-18T12:19:23;101075.25;;;34.91;15.32
67980;BME280;54760;47.490;19.030;2022-10-18T12:21:50;101063.94;;;35.37;15.10
67980;BME280;54760;47.490;19.030;2022-10-18T12:24:17;101052.88;;;35.79;14.93
67980;BME280;54760;47.490;19.030;2022-10-18T12:26:44;101053.09;;;35.73;14.67
67980;BME280;54760;47.490;19.030;2022-10-18T12:31:44;101054.03;;;33.41;16.34
67980;BME280;54760;47.490;19.030;2022-10-18T12:39:23;101038.03;;;34.15;16.22
67980;BME280;54760;47.490;19.030;2022-10-18T12:41:51;101037.50;;;34.68;15.42
67980;BME280;54760;47.490;19.030;2022-10-18T12:44:18;101034.88;;;34.26;15.88
67980;BME280;54760;47.490;19.030;2022-10-18T12:46:48;101026.94;;;34.32;15.93
67980;BME280;54760;47.490;19.030;2022-10-18T12:49:16;101029.44;;;33.43;16.10
67980;BME280;54760;47.490;19.030;2022-10-18T12:51:49;101022.88;;;32.86;16.89
67980;BME280;54760;47.490;19.030;2022-10-18T12:54:15;101021.09;;;32.96;17.09
67980;BME280;54760;47.490;19.030;2022-10-18T12:56:42;101018.81;;;33.36;16.14
67980;BME280;54760;47.490;19.030;2022-10-18T13:09:21;101002.81;;;32.16;17.94
67980;BME280;54760;47.490;19.030;2022-10-18T13:11:47;100998.94;;;31.67;18.38
67980;BME280;54760;47.490;19.030;2022-10-18T13:14:34;100988.88;;;32.52;18.13
67980;BME280;54760;47.490;19.030;2022-10-18T13:19:47;100988.81;;;32.79;17.50
67980;BME280;54760;47.490;19.030;2022-10-18T13:35:40;100984.56;;;31.52;18.56
67980;BME280;54760;47.490;19.030;2022-10-18T13:37:57;100977.03;;;31.54;18.45
67980;BME280;54760;47.490;19.030;2022-10-18T13:40:23;100984.31;;;32.02;18.55
67980;BME280;54760;47.490;19.030;2022-10-18T13:42:49;100978.56;;;31.55;18.67
67980;BME280;54760;47.490;19.030;2022-10-18T13:47:55;100986.63;;;30.42;19.83
67980;BME280;54760;47.490;19.030;2022-10-18T13:50:22;100982.28;;;30.04;20.16
67980;BME280;54760;47.490;19.030;2022-10-18T13:55:50;100982.81;;;29.29;20.32
67980;BME280;54760;47.490;19.030;2022-10-18T14:00:53;100975.28;;;29.13;21.32
67980;BME280;54760;47.490;19.030;2022-10-18T14:06:03;100971.88;;;29.20;21.16
67980;BME280;54760;47.490;19.030;2022-10-18T14:11:00;100962.22;;;28.86;20.92
67980;BME280;54760;47.490;19.030;2022-10-18T14:13:28;100962.50;;;28.41;21.92
67980;BME280;54760;47.490;19.030;2022-10-18T14:15:57;100962.16;;;28.15;21.95
67980;BME280;54760;47.490;19.030;2022-10-18T14:18:26;100959.72;;;27.84;22.39
67980;BME280;54760;47.490;19.030;2022-10-18T14:20:56;100955.03;;;28.03;22.99
67980;BME280;54760;47.490;19.030;2022-10-18T14:23:42;100951.66;;;28.10;22.64
67980;BME280;54760;47.490;19.030;2022-10-18T14:26:12;100953.66;;;28.62;22.08
67980;BME280;54760;47.490;19.030;2022-10-18T14:28:38;100952.16;;;28.55;22.62
67980;BME280;54760;47.490;19.030;2022-10-18T14:31:04;100953.66;;;28.62;21.93
67980;BME280;54760;47.490;19.030;2022-10-18T14:36:04;100943.78;;;28.03;22.37
67980;BME280;54760;47.490;19.030;2022-10-18T14:38:30;100950.03;;;27.79;23.13
67980;BME280;54760;47.490;19.030;2022-10-18T14:41:05;100938.31;;;27.70;23.31
67980;BME280;54760;47.490;19.030;2022-10-18T14:43:30;100939.28;;;27.78;22.81
67980;BME280;54760;47.490;19.030;2022-10-18T14:46:06;100933.75;;;27.44;23.56
67980;BME280;54760;47.490;19.030;2022-10-18T14:48:32;100930.22;;;27.27;23.80
67980;BME280;54760;47.490;19.030;2022-10-18T14:50:57;100924.28;;;27.42;23.54
67980;BME280;54760;47.490;19.030;2022-10-18T14:53:24;100914.16;;;26.83;24.34
67980;BME280;54760;47.490;19.030;2022-10-18T14:55:55;100920.78;;;26.36;25.00
67980;BME280;54760;47.490;19.030;2022-10-18T14:58:22;100910.12;;;25.27;26.65
67980;BME280;54760;47.490;19.030;2022-10-18T15:00:47;100912.47;;;25.34;27.16
67980;BME280;54760;47.490;19.030;2022-10-18T15:03:13;100910.50;;;25.03;27.86
67980;BME280;54760;47.490;19.030;2022-10-18T15:05:59;100908.78;;;24.23;28.64
67980;BME280;54760;47.490;19.030;2022-10-18T15:08:31;100906.78;;;24.23;29.41